URSSURKA

Guest
Details From URSS - Sochi
To URKA - Vityazevo
Flight Number -
Tags decoded
Created
Modified
Stats Distance 163 nm / 303 km
Max Altitude 0 ft / 0 m
Waypoints 5
Social Downloads 2
Likes 0
Share VATSIM

Download

Looking for another format? Having issues loading an existing format? Contact us
Advertisement - Login to hide

Notes

Requested: URSS A277 LAMET A277 ALUBI A277 BAKRI URKA Unmatched points: A277

Route

URSS LAMET A277 BAKRI URKA

ID Type Via Altitude Latitude Longitude Leg Dist Tot Dist Heading (true) Name
O URSS APT - 0 ft / 0 m 43.44475˚ 39.94730˚ - 0 nm - Sochi
LAMET FIX - 0 ft / 0 m 43.34972˚ 39.08861˚ 37 nm 37 nm 262° / 261° -
ALUBI FIX A277 (AWY-HI) 0 ft / 0 m 43.68333˚ 38.60333˚ 29 nm 67 nm 314° / 313° -
BAKRI FIX A277 (AWY-LO) 0 ft / 0 m 43.89806˚ 38.28167˚ 18 nm 86 nm 313° / 313° -
O URKA APT - 0 ft / 0 m 45.00190˚ 37.34761˚ 77 nm 163 nm 329° / 329° Vityazevo

Altitude Profile

Advertisement - Login to hide

Weather


0- 5 10 15 20 25 30 35+ Temperature / ° C

Clouds and Precipitation
Forecast for 2017-12-17 06:00 UTC. Updated an hour ago

Ground ~20,000 ft ~40,000 ft Winds

URSS

Details ICAO URSS (AER)
Name Sochi
Region Russia
Timezone Europe/Moscow (UTC+3.0)
Stats Elevation 89 ft / 27 m (AMSL)
Location 43.444749° 39.947302°
Runways 2
Magnetic Variation 6.963° E

METAR

URSS 170200Z 08006MPS 9999 NSC 08/M00 Q1018 R06/090070 R02/090070 NOSIG RMK R02/06004MPS QFE763

Decode

TAF

TAF URSS 162256Z 1700/1724 06006MPS 9999 SCT100 TEMPO 1700/1706 04007G12MPS BECMG 1706/1708 15007G13MPS SCT030CB BKN100 TEMPO 1709/1715 -SHRA TEMPO 1715/1724 3100 -SHRA SCT006 BKN020CB BKN100

Decode

Departure Runways

ID Width Length Bearing (true) Bearing (mag) Surface Threshold Offset Overrun Length
02 161 ft / 49 m 7,267 ft / 2,215 m 28.98° 22.02° Concrete 0 ft / 0 m 0 ft / 0 m
06 164 ft / 50 m 9,531 ft / 2,905 m 64.90° 57.94° Concrete 262 ft / 80 m 0 ft / 0 m
20 161 ft / 49 m 7,267 ft / 2,215 m 208.99° 202.03° Concrete 0 ft / 0 m 0 ft / 0 m
24 164 ft / 50 m 9,531 ft / 2,905 m 244.92° 237.96° Concrete 0 ft / 0 m 0 ft / 0 m

URKA

Details ICAO URKA (AAQ)
Name Vityazevo
Region Russia
Timezone Europe/Moscow (UTC+3.0)
Stats Elevation 173 ft / 53 m (AMSL)
Location 45.001895° 37.347609°
Runways 2
Magnetic Variation 7.172° E

METAR

URKA 170200Z AUTO 13007MPS 9999 // NCD 11/09 Q1015 RMK QFE757/1010

Decode

TAF

TAF AMD TAF AMD URKA 161830Z 1618/1718 CNL

Decode

Destination Runways

ID Width Length Bearing (true) Bearing (mag) Surface Threshold Offset Overrun Length
04 138 ft / 42 m 7,961 ft / 2,426 m 43.79° 36.62° Concrete 0 ft / 0 m 157 ft / 48 m
04R 312 ft / 95 m 8,009 ft / 2,441 m 43.78° 36.61° Grass 0 ft / 0 m 0 ft / 0 m
22 138 ft / 42 m 7,961 ft / 2,426 m 223.81° 216.64° Concrete 0 ft / 0 m 164 ft / 50 m
22L 312 ft / 95 m 8,009 ft / 2,441 m 223.80° 216.63° Grass 0 ft / 0 m 0 ft / 0 m

Popular Alternatives